createdAt,value
2018-12-07T00:02:17.727Z,13.00
2018-12-07T00:04:46.047Z,13.00
2018-12-07T00:07:14.941Z,13.00
2018-12-07T00:09:43.159Z,12.90
2018-12-07T00:12:11.420Z,12.90
2018-12-07T00:14:39.626Z,12.90
2018-12-07T00:17:07.911Z,12.90
2018-12-07T00:19:36.182Z,12.90
2018-12-07T00:22:05.027Z,12.80
2018-12-07T00:24:33.220Z,12.90
2018-12-07T00:27:01.396Z,12.90
2018-12-07T00:29:29.588Z,12.80
2018-12-07T00:31:57.919Z,12.80
2018-12-07T00:34:26.188Z,12.90
2018-12-07T00:36:54.378Z,12.80
2018-12-07T00:39:22.587Z,12.90
2018-12-07T00:41:50.860Z,12.90
2018-12-07T00:44:19.041Z,13.00
2018-12-07T00:46:47.307Z,12.90
2018-12-07T00:49:15.501Z,12.90
2018-12-07T00:51:43.659Z,12.90
2018-12-07T00:54:11.922Z,13.00
2018-12-07T00:56:40.174Z,13.00
2018-12-07T00:59:08.364Z,13.00
2018-12-07T01:01:36.692Z,13.00
2018-12-07T01:04:04.992Z,13.00
2018-12-07T01:06:33.171Z,13.00
2018-12-07T01:09:01.387Z,13.00
2018-12-07T01:11:29.711Z,13.00
2018-12-07T01:13:57.891Z,13.00
2018-12-07T01:16:26.158Z,13.00
2018-12-07T01:18:54.622Z,13.00
2018-12-07T01:21:22.892Z,13.00
2018-12-07T01:23:51.130Z,13.00
2018-12-07T01:26:19.417Z,13.00
2018-12-07T01:28:47.574Z,13.00
2018-12-07T01:31:15.759Z,13.00
2018-12-07T01:33:43.979Z,12.90
2018-12-07T01:36:12.242Z,12.90
2018-12-07T01:38:40.416Z,12.90
2018-12-07T01:41:08.693Z,12.90
2018-12-07T01:43:36.879Z,12.80
2018-12-07T01:46:05.043Z,12.80
2018-12-07T01:48:33.208Z,12.70
2018-12-07T01:51:01.431Z,12.60
2018-12-07T01:53:29.613Z,12.60
2018-12-07T01:55:57.856Z,12.60
2018-12-07T01:58:26.098Z,12.50
2018-12-07T02:00:54.328Z,12.60
2018-12-07T02:03:22.519Z,12.50
2018-12-07T02:05:50.801Z,12.60
2018-12-07T02:08:18.978Z,12.60
2018-12-07T02:10:47.172Z,12.60
2018-12-07T02:13:15.354Z,12.50
2018-12-07T02:15:43.582Z,12.50
2018-12-07T02:18:11.769Z,12.50
2018-12-07T02:20:40.105Z,12.50
2018-12-07T02:23:08.343Z,12.50
2018-12-07T02:25:36.530Z,12.50
2018-12-07T02:28:04.804Z,12.40
2018-12-07T02:30:33.138Z,12.40
2018-12-07T02:33:01.462Z,12.50
2018-12-07T02:35:29.890Z,12.50
2018-12-07T02:37:58.046Z,12.50
2018-12-07T02:40:26.334Z,12.60
2018-12-07T02:42:54.500Z,12.50
2018-12-07T02:45:22.669Z,12.50
2018-12-07T02:47:50.890Z,12.50
2018-12-07T02:50:19.128Z,12.40
2018-12-07T02:52:47.329Z,12.40
2018-12-07T02:55:15.706Z,12.40
2018-12-07T02:57:43.931Z,12.40
2018-12-07T03:00:12.276Z,12.40
2018-12-07T03:02:40.556Z,12.40
2018-12-07T03:05:08.814Z,12.40
2018-12-07T03:07:37.067Z,12.40
2018-12-07T03:10:06.740Z,12.40
2018-12-07T03:12:34.927Z,12.30
2018-12-07T03:15:03.420Z,12.40
2018-12-07T03:17:31.751Z,12.40
2018-12-07T03:19:59.940Z,12.40
2018-12-07T03:22:28.106Z,12.40
2018-12-07T03:24:56.409Z,12.40
2018-12-07T03:27:24.571Z,12.40
2018-12-07T03:29:52.826Z,12.40
2018-12-07T03:32:21.036Z,12.30
2018-12-07T03:34:49.230Z,12.30
2018-12-07T03:37:17.484Z,12.30
2018-12-07T03:39:45.765Z,12.30
2018-12-07T03:42:14.126Z,12.30
2018-12-07T03:44:42.305Z,12.30
2018-12-07T03:47:10.585Z,12.30
2018-12-07T03:49:38.830Z,12.30
2018-12-07T03:52:07.092Z,12.30
2018-12-07T03:54:35.419Z,12.30
2018-12-07T03:57:03.631Z,12.30
2018-12-07T03:59:31.807Z,12.30
2018-12-07T04:02:00.083Z,12.40
2018-12-07T04:04:28.291Z,12.30
2018-12-07T04:06:56.464Z,12.40
2018-12-07T04:09:24.646Z,12.40
2018-12-07T04:11:52.832Z,12.40
2018-12-07T04:14:20.979Z,12.40
2018-12-07T04:16:49.179Z,12.40
2018-12-07T04:19:17.346Z,12.40
2018-12-07T04:21:45.562Z,12.40
2018-12-07T04:24:13.819Z,12.30
2018-12-07T04:26:41.974Z,12.30
2018-12-07T04:29:10.286Z,12.30
2018-12-07T04:31:38.542Z,12.20
2018-12-07T04:34:06.675Z,12.20
2018-12-07T04:36:34.926Z,12.10
2018-12-07T04:39:03.889Z,12.10
2018-12-07T04:41:32.226Z,12.10
2018-12-07T04:44:00.517Z,12.00
2018-12-07T04:46:28.683Z,12.00
2018-12-07T04:48:56.831Z,11.90
2018-12-07T04:51:25.110Z,11.90
2018-12-07T04:53:53.364Z,11.90
2018-12-07T04:56:21.638Z,11.90
2018-12-07T04:58:49.811Z,11.80
2018-12-07T05:01:18.094Z,11.70
2018-12-07T05:03:46.358Z,11.70
2018-12-07T05:06:14.521Z,11.70
2018-12-07T05:08:42.674Z,11.70
2018-12-07T05:11:10.867Z,11.70
2018-12-07T05:13:39.103Z,11.60
2018-12-07T05:16:07.358Z,11.60
2018-12-07T05:18:35.588Z,11.60
2018-12-07T05:21:03.746Z,11.50
2018-12-07T05:23:32.014Z,11.50
2018-12-07T05:26:00.221Z,11.50
2018-12-07T05:28:28.390Z,11.50
2018-12-07T05:30:56.642Z,11.40
2018-12-07T05:33:25.041Z,11.40
2018-12-07T05:35:53.368Z,11.40
2018-12-07T05:38:21.651Z,11.40
2018-12-07T05:40:49.911Z,11.40
2018-12-07T05:43:18.100Z,11.30
2018-12-07T05:45:46.299Z,11.30
2018-12-07T05:48:14.474Z,11.30
2018-12-07T05:50:42.647Z,11.20
2018-12-07T05:53:10.867Z,11.30
2018-12-07T05:55:39.117Z,11.30
2018-12-07T05:58:07.416Z,11.30
2018-12-07T06:00:35.688Z,11.30
2018-12-07T06:03:03.987Z,11.30
2018-12-07T06:05:32.327Z,11.30
2018-12-07T06:08:18.107Z,11.30
2018-12-07T06:10:46.335Z,11.30
2018-12-07T06:13:14.603Z,11.40
2018-12-07T06:15:43.190Z,11.40
2018-12-07T06:18:11.415Z,11.40
2018-12-07T06:20:39.611Z,11.40
2018-12-07T06:23:07.933Z,11.40
2018-12-07T06:25:36.768Z,11.40
2018-12-07T06:28:05.079Z,11.40
2018-12-07T06:30:33.278Z,11.40
2018-12-07T06:33:01.542Z,11.40
2018-12-07T06:35:29.735Z,11.40
2018-12-07T06:37:57.903Z,11.40
2018-12-07T06:40:26.115Z,11.50
2018-12-07T06:42:54.321Z,11.50
2018-12-07T06:45:22.546Z,11.50
2018-12-07T06:47:50.818Z,11.60
2018-12-07T06:50:19.261Z,11.60
2018-12-07T06:52:47.548Z,11.60
2018-12-07T06:55:15.737Z,11.60
2018-12-07T06:57:44.070Z,11.60
2018-12-07T07:00:12.735Z,11.60
2018-12-07T07:02:41.123Z,11.70
2018-12-07T07:05:09.311Z,11.60
2018-12-07T07:07:37.838Z,11.70
2018-12-07T07:10:06.997Z,11.80
2018-12-07T07:12:35.240Z,11.70
2018-12-07T07:15:04.345Z,11.70
2018-12-07T07:17:32.618Z,11.80
2018-12-07T07:20:00.849Z,11.80
2018-12-07T07:22:29.182Z,11.80
2018-12-07T07:24:57.391Z,11.80
2018-12-07T07:27:25.588Z,11.90
2018-12-07T07:29:53.920Z,11.90
2018-12-07T07:32:22.123Z,11.90
2018-12-07T07:34:50.449Z,11.90
2018-12-07T07:37:18.959Z,11.90
2018-12-07T07:39:47.192Z,12.00
2018-12-07T07:42:15.688Z,12.00
2018-12-07T07:44:43.980Z,12.10
2018-12-07T07:47:12.139Z,12.10
2018-12-07T07:49:40.316Z,12.10
2018-12-07T07:52:08.657Z,12.20
2018-12-07T07:54:36.887Z,12.30
2018-12-07T07:57:05.084Z,12.30
2018-12-07T07:59:33.623Z,12.30
2018-12-07T08:02:01.821Z,12.40
2018-12-07T08:04:30.220Z,12.30
2018-12-07T08:06:58.412Z,12.40
2018-12-07T08:09:26.692Z,12.40
2018-12-07T08:11:55.011Z,12.40
2018-12-07T08:14:23.172Z,12.40
2018-12-07T08:16:51.358Z,12.40
2018-12-07T08:19:19.636Z,12.50
2018-12-07T08:21:47.946Z,12.40
2018-12-07T08:24:16.312Z,12.40
2018-12-07T08:26:44.709Z,12.40
2018-12-07T08:29:12.894Z,12.40
2018-12-07T08:31:41.059Z,12.40
2018-12-07T08:34:09.316Z,12.50
2018-12-07T08:36:37.676Z,12.50
2018-12-07T08:39:10.201Z,12.60
2018-12-07T08:41:38.394Z,12.60
2018-12-07T08:44:06.743Z,12.60
2018-12-07T08:46:34.992Z,12.60
2018-12-07T08:49:03.237Z,12.60
2018-12-07T08:51:31.650Z,12.60
2018-12-07T08:54:00.240Z,12.60
2018-12-07T08:56:29.668Z,12.60
2018-12-07T08:58:58.710Z,12.60
2018-12-07T09:01:27.212Z,12.60
2018-12-07T09:03:55.404Z,12.70
2018-12-07T09:06:23.683Z,12.70
2018-12-07T09:08:51.912Z,12.60
2018-12-07T09:11:20.588Z,12.60
2018-12-07T09:13:48.782Z,12.60
2018-12-07T09:16:17.052Z,12.60
2018-12-07T09:18:45.330Z,12.80
2018-12-07T09:21:13.579Z,12.70
2018-12-07T09:23:41.771Z,12.80
2018-12-07T09:26:10.017Z,12.80
2018-12-07T09:28:38.190Z,12.80
2018-12-07T09:31:06.551Z,12.70
2018-12-07T09:33:34.722Z,12.80
2018-12-07T09:36:03.031Z,12.80
2018-12-07T09:38:31.246Z,12.80
2018-12-07T09:40:59.446Z,12.80
2018-12-07T09:43:27.660Z,12.80
2018-12-07T09:45:56.070Z,12.80
2018-12-07T09:48:24.276Z,12.80
2018-12-07T09:50:52.448Z,12.80
2018-12-07T09:53:20.682Z,12.90
2018-12-07T09:55:48.831Z,12.90
2018-12-07T09:58:17.012Z,12.90
2018-12-07T10:00:45.241Z,12.80
2018-12-07T10:03:13.508Z,12.80
2018-12-07T10:05:41.696Z,12.70
2018-12-07T10:08:10.024Z,12.70
2018-12-07T10:10:38.301Z,12.70
2018-12-07T10:13:08.075Z,12.70
2018-12-07T10:15:36.959Z,12.70
2018-12-07T10:18:05.223Z,12.70
2018-12-07T10:20:33.467Z,12.90
2018-12-07T10:23:01.774Z,12.90
2018-12-07T10:25:30.096Z,12.80
2018-12-07T10:27:58.258Z,12.90
2018-12-07T10:30:27.095Z,12.80
2018-12-07T10:32:55.350Z,12.90
2018-12-07T10:35:23.552Z,12.80
2018-12-07T10:37:51.780Z,12.90
2018-12-07T10:40:19.972Z,12.90
2018-12-07T10:42:48.232Z,13.00
2018-12-07T10:45:16.600Z,12.90
2018-12-07T10:47:50.259Z,12.90
2018-12-07T10:50:15.138Z,13.00
2018-12-07T10:52:43.418Z,12.90
2018-12-07T10:55:11.637Z,13.00
2018-12-07T10:57:39.805Z,12.90
2018-12-07T11:00:14.244Z,13.00
2018-12-07T11:02:47.821Z,13.00
2018-12-07T11:05:22.417Z,13.10
2018-12-07T11:07:56.407Z,13.00
2018-12-07T11:10:30.089Z,13.10
2018-12-07T11:14:04.260Z,13.10
2018-12-07T11:16:38.059Z,13.10
2018-12-07T11:19:11.775Z,13.10
2018-12-07T11:21:45.571Z,13.10
2018-12-07T11:24:19.216Z,13.10
2018-12-07T11:26:53.195Z,13.00
2018-12-07T11:29:27.206Z,13.10
2018-12-07T11:32:01.079Z,13.10
2018-12-07T11:34:34.356Z,13.20
2018-12-07T11:37:04.070Z,13.20
2018-12-07T11:39:32.235Z,13.20
2018-12-07T11:42:01.163Z,13.20
2018-12-07T11:44:29.497Z,13.10
2018-12-07T11:46:57.685Z,13.20
2018-12-07T11:49:30.787Z,13.40
2018-12-07T11:51:59.485Z,13.30
2018-12-07T11:54:28.022Z,13.30
2018-12-07T11:56:56.639Z,13.40
2018-12-07T11:59:24.957Z,13.60
2018-12-07T12:01:53.603Z,13.40
2018-12-07T12:04:21.863Z,13.50
2018-12-07T12:06:50.185Z,13.40
2018-12-07T12:09:18.451Z,13.50
2018-12-07T12:11:47.015Z,13.40
2018-12-07T12:14:15.293Z,13.40
2018-12-07T12:16:43.588Z,13.40
2018-12-07T12:19:11.971Z,13.40
2018-12-07T12:21:40.376Z,13.50
2018-12-07T12:24:08.701Z,13.50
2018-12-07T12:26:37.217Z,13.50
2018-12-07T12:29:05.912Z,13.50
2018-12-07T12:31:34.395Z,13.50
2018-12-07T12:34:02.837Z,13.50
2018-12-07T12:36:31.246Z,13.60
2018-12-07T12:38:59.470Z,13.50
2018-12-07T12:41:27.688Z,13.50
2018-12-07T12:43:55.963Z,13.40
2018-12-07T12:46:24.345Z,13.50
2018-12-07T12:48:53.087Z,13.40
2018-12-07T12:51:21.611Z,13.50
2018-12-07T12:53:49.891Z,13.50
2018-12-07T12:56:18.314Z,13.50
2018-12-07T12:58:46.550Z,13.60
2018-12-07T13:01:14.809Z,13.50
2018-12-07T13:03:43.076Z,13.70
2018-12-07T13:06:11.304Z,13.80
2018-12-07T13:08:39.731Z,13.70
2018-12-07T13:11:08.597Z,13.70
2018-12-07T13:13:37.029Z,13.80
2018-12-07T13:16:05.375Z,13.60
2018-12-07T13:18:33.725Z,13.70
2018-12-07T13:21:02.450Z,13.70
2018-12-07T13:23:30.643Z,13.80
2018-12-07T13:25:58.854Z,13.80
2018-12-07T13:28:27.165Z,13.80
2018-12-07T13:30:55.435Z,13.80
2018-12-07T13:33:23.668Z,13.70
2018-12-07T13:35:51.903Z,13.70
2018-12-07T13:38:20.605Z,13.60
2018-12-07T13:40:48.826Z,13.60
2018-12-07T13:43:17.256Z,13.50
2018-12-07T13:45:45.958Z,13.50
2018-12-07T13:48:14.585Z,13.50
2018-12-07T13:50:43.176Z,13.40
2018-12-07T13:53:12.070Z,13.50
2018-12-07T13:55:40.449Z,13.40
2018-12-07T13:58:08.918Z,13.40
2018-12-07T14:00:37.536Z,13.30
2018-12-07T14:03:05.963Z,13.40
2018-12-07T14:05:34.440Z,13.30
2018-12-07T14:08:02.824Z,13.30
2018-12-07T14:10:31.350Z,13.30
2018-12-07T14:12:59.635Z,13.20
2018-12-07T14:15:27.938Z,13.20
2018-12-07T14:17:56.233Z,13.20
2018-12-07T14:20:24.633Z,13.20
2018-12-07T14:22:52.946Z,13.20
2018-12-07T14:25:21.290Z,13.10
2018-12-07T14:27:49.723Z,13.10
2018-12-07T14:30:18.167Z,13.00
2018-12-07T14:32:46.611Z,13.00
2018-12-07T14:35:15.581Z,13.00
2018-12-07T14:37:43.976Z,13.00
2018-12-07T14:40:12.297Z,13.00
2018-12-07T14:42:40.918Z,12.90
2018-12-07T14:45:09.680Z,12.90
2018-12-07T14:47:38.787Z,12.80
2018-12-07T14:50:08.061Z,12.90
2018-12-07T14:52:36.416Z,12.80
2018-12-07T14:55:05.625Z,12.80
2018-12-07T14:57:34.127Z,12.80
2018-12-07T15:00:02.659Z,12.80
2018-12-07T15:02:37.919Z,12.80
2018-12-07T15:05:09.678Z,12.70
2018-12-07T15:07:38.025Z,12.60
2018-12-07T15:10:07.995Z,12.70
2018-12-07T15:12:36.448Z,12.70
2018-12-07T15:15:05.793Z,12.70
2018-12-07T15:17:34.014Z,12.60
2018-12-07T15:20:04.180Z,12.70
2018-12-07T15:22:32.543Z,12.60
2018-12-07T15:25:00.876Z,12.60
2018-12-07T15:27:29.662Z,12.50
2018-12-07T15:29:58.155Z,12.40
2018-12-07T15:32:26.465Z,12.30
2018-12-07T15:34:54.891Z,12.10
2018-12-07T15:37:23.899Z,12.00
2018-12-07T15:39:52.328Z,11.90
2018-12-07T15:42:21.778Z,11.90
2018-12-07T15:44:50.530Z,11.80
2018-12-07T15:47:19.097Z,11.80
2018-12-07T15:49:47.551Z,11.80
2018-12-07T15:52:16.087Z,11.70
2018-12-07T15:54:44.413Z,11.60
2018-12-07T15:57:12.769Z,11.60
2018-12-07T15:59:41.287Z,11.50
2018-12-07T16:02:09.595Z,11.50
2018-12-07T16:04:38.231Z,11.40
2018-12-07T16:07:06.746Z,11.40
2018-12-07T16:09:35.245Z,11.40
2018-12-07T16:12:03.783Z,11.30
2018-12-07T16:14:32.257Z,11.30
2018-12-07T16:17:00.569Z,11.30
2018-12-07T16:19:29.551Z,11.30
2018-12-07T16:21:57.993Z,11.20
2018-12-07T16:24:26.233Z,11.20
2018-12-07T16:26:54.943Z,11.20
2018-12-07T16:29:23.360Z,11.10
2018-12-07T16:31:51.760Z,11.10
2018-12-07T16:34:20.179Z,11.10
2018-12-07T16:36:48.514Z,11.10
2018-12-07T16:39:16.734Z,11.20
2018-12-07T16:41:45.178Z,11.10
2018-12-07T16:44:13.576Z,11.00
2018-12-07T16:46:42.030Z,11.10
2018-12-07T16:49:10.645Z,11.10
2018-12-07T16:51:39.499Z,11.10
2018-12-07T16:54:08.012Z,11.10
2018-12-07T16:56:36.433Z,11.10
2018-12-07T16:59:04.720Z,11.00
2018-12-07T17:01:33.022Z,11.00
2018-12-07T17:04:01.590Z,11.00
2018-12-07T17:06:29.807Z,11.00
2018-12-07T17:08:58.032Z,11.10
2018-12-07T17:11:26.298Z,11.10
2018-12-07T17:13:54.529Z,11.10
2018-12-07T17:16:22.912Z,11.10
2018-12-07T17:18:51.396Z,11.00
2018-12-07T17:21:19.798Z,11.00
2018-12-07T17:23:48.612Z,11.00
2018-12-07T17:26:16.865Z,11.10
2018-12-07T17:28:45.071Z,11.00
2018-12-07T17:31:14.516Z,10.90
2018-12-07T17:33:42.959Z,10.90
2018-12-07T17:36:11.492Z,10.90
2018-12-07T17:38:39.699Z,10.90
2018-12-07T17:41:07.941Z,10.90
2018-12-07T17:43:36.257Z,10.90
2018-12-07T17:46:04.652Z,10.80
2018-12-07T17:48:33.130Z,10.70
2018-12-07T17:51:01.475Z,10.60
2018-12-07T17:53:29.966Z,10.40
2018-12-07T17:55:58.282Z,10.30
2018-12-07T17:58:26.601Z,10.10
2018-12-07T18:00:55.006Z,10.10
2018-12-07T18:03:23.283Z,9.90
2018-12-07T18:05:51.687Z,9.80
2018-12-07T18:08:20.213Z,9.80
2018-12-07T18:10:48.502Z,9.70
2018-12-07T18:13:16.838Z,9.60
2018-12-07T18:15:45.138Z,9.50
2018-12-07T18:18:13.603Z,9.50
2018-12-07T18:20:41.982Z,9.40
2018-12-07T18:23:10.413Z,9.40
2018-12-07T18:25:38.946Z,9.40
2018-12-07T18:28:07.310Z,9.40
2018-12-07T18:30:35.782Z,9.30
2018-12-07T18:33:04.466Z,9.30
2018-12-07T18:35:33.238Z,9.30
2018-12-07T18:38:01.685Z,9.20
2018-12-07T18:40:29.900Z,9.20
2018-12-07T18:42:58.353Z,9.20
2018-12-07T18:45:26.750Z,9.20
2018-12-07T18:47:55.220Z,9.10
2018-12-07T18:50:23.772Z,9.10
2018-12-07T18:52:52.150Z,9.00
2018-12-07T18:55:20.559Z,8.80
2018-12-07T18:57:49.014Z,8.60
2018-12-07T19:00:17.306Z,8.30
2018-12-07T19:02:45.792Z,8.10
2018-12-07T19:05:14.184Z,7.90
2018-12-07T19:07:42.602Z,7.90
2018-12-07T19:10:11.683Z,7.80
2018-12-07T19:12:40.053Z,7.70
2018-12-07T19:15:09.119Z,7.70
2018-12-07T19:17:37.610Z,7.70
2018-12-07T19:20:07.404Z,7.70
2018-12-07T19:22:35.647Z,7.70
2018-12-07T19:25:04.517Z,7.70
2018-12-07T19:27:32.979Z,7.70
2018-12-07T19:30:02.263Z,7.60
2018-12-07T19:32:30.996Z,7.60
2018-12-07T19:34:59.321Z,7.60
2018-12-07T19:37:27.599Z,7.50
2018-12-07T19:39:56.118Z,7.50
2018-12-07T19:42:24.644Z,7.50
2018-12-07T19:44:52.862Z,7.50
2018-12-07T19:47:21.300Z,7.50
2018-12-07T19:49:49.763Z,7.50
2018-12-07T19:52:18.923Z,7.50
2018-12-07T19:54:47.465Z,7.60
2018-12-07T19:57:17.220Z,7.60
2018-12-07T19:59:45.662Z,7.60
2018-12-07T20:02:14.336Z,7.60
2018-12-07T20:04:42.876Z,7.70
2018-12-07T20:07:13.236Z,7.60
2018-12-07T20:09:41.856Z,7.70
2018-12-07T20:12:10.228Z,7.60
2018-12-07T20:14:38.540Z,7.60
2018-12-07T20:17:06.938Z,7.60
2018-12-07T20:19:35.189Z,7.60
2018-12-07T20:22:03.840Z,7.60
2018-12-07T20:24:32.438Z,7.70
2018-12-07T20:27:00.827Z,7.60
2018-12-07T20:29:29.654Z,7.60
2018-12-07T20:31:58.151Z,7.70
2018-12-07T20:34:26.420Z,7.60
2018-12-07T20:36:54.654Z,7.70
2018-12-07T20:39:22.911Z,7.70
2018-12-07T20:41:51.102Z,7.70
2018-12-07T20:44:19.341Z,7.70
2018-12-07T20:46:47.647Z,7.80
2018-12-07T20:49:16.064Z,7.80
2018-12-07T20:51:44.514Z,7.80
2018-12-07T20:54:12.891Z,7.70
2018-12-07T20:56:41.439Z,7.60
2018-12-07T20:59:09.679Z,7.70
2018-12-07T21:01:38.307Z,7.60
2018-12-07T21:04:22.874Z,7.70
2018-12-07T21:07:40.548Z,7.60
2018-12-07T21:10:30.535Z,7.70
2018-12-07T21:13:28.777Z,7.60
2018-12-07T21:16:02.221Z,7.60
2018-12-07T21:18:31.244Z,7.60
2018-12-07T21:20:59.872Z,7.50
2018-12-07T21:23:28.266Z,7.50
2018-12-07T21:25:56.719Z,7.50
2018-12-07T21:28:25.132Z,7.50
2018-12-07T21:31:02.382Z,7.50
2018-12-07T21:33:43.170Z,7.50
2018-12-07T21:36:34.742Z,7.60
2018-12-07T21:39:05.408Z,7.70
2018-12-07T21:41:33.666Z,7.80
2018-12-07T21:44:01.884Z,7.80
2018-12-07T21:46:30.182Z,7.80
2018-12-07T21:48:58.625Z,7.70
2018-12-07T21:52:04.979Z,7.80
2018-12-07T21:54:33.503Z,7.70
2018-12-07T21:57:01.935Z,7.70
2018-12-07T21:59:30.466Z,7.70
2018-12-07T22:01:58.639Z,7.80
2018-12-07T22:04:26.933Z,7.80
2018-12-07T22:06:55.539Z,7.90
2018-12-07T22:09:24.164Z,7.30
2018-12-07T22:11:52.653Z,6.90
2018-12-07T22:14:21.226Z,6.80
2018-12-07T22:16:49.612Z,6.80
2018-12-07T22:19:17.875Z,6.80
2018-12-07T22:21:46.268Z,7.00
2018-12-07T22:24:14.474Z,7.10
2018-12-07T22:26:42.644Z,7.30
2018-12-07T22:29:10.838Z,7.40
2018-12-07T22:31:39.415Z,7.40
2018-12-07T22:34:07.745Z,7.40
2018-12-07T22:36:36.121Z,7.50
2018-12-07T22:39:07.870Z,7.50
2018-12-07T22:41:36.474Z,7.50
2018-12-07T22:44:05.054Z,7.60
2018-12-07T22:46:33.611Z,7.60
2018-12-07T22:49:02.221Z,7.50
2018-12-07T22:51:30.801Z,7.50
2018-12-07T22:53:59.169Z,7.50
2018-12-07T22:56:27.441Z,7.60
2018-12-07T22:58:55.658Z,7.40
2018-12-07T23:01:23.963Z,7.40
2018-12-07T23:03:52.263Z,7.40
2018-12-07T23:06:20.444Z,7.50
2018-12-07T23:08:48.596Z,7.40
2018-12-07T23:11:16.886Z,7.50
2018-12-07T23:13:45.040Z,7.50
2018-12-07T23:16:13.220Z,7.40
2018-12-07T23:18:41.763Z,7.40
2018-12-07T23:21:10.026Z,7.40
2018-12-07T23:23:38.279Z,7.40
2018-12-07T23:26:06.566Z,7.30
2018-12-07T23:28:34.795Z,7.30
2018-12-07T23:31:03.051Z,7.30
2018-12-07T23:33:31.223Z,7.30
2018-12-07T23:35:59.421Z,7.20
2018-12-07T23:38:27.818Z,7.30
2018-12-07T23:40:55.974Z,7.20
2018-12-07T23:43:24.473Z,7.20
2018-12-07T23:45:52.631Z,7.30
2018-12-07T23:48:20.797Z,7.20
2018-12-07T23:50:49.016Z,7.20
2018-12-07T23:53:17.272Z,7.20
2018-12-07T23:55:45.575Z,7.30
2018-12-07T23:58:13.856Z,7.40
